sensor_id;sensor_type;location;lat;lon;timestamp;P1;durP1;ratioP1;P2;durP2;ratioP2
84027;SDS011;74111;45.650;25.612;2024-03-23T00:54:47;7.60;;;4.60;;
84027;SDS011;74111;45.650;25.612;2024-03-23T00:57:16;7.30;;;4.60;;
84027;SDS011;74111;45.650;25.612;2024-03-23T00:59:45;7.20;;;4.40;;
84027;SDS011;74111;45.650;25.612;2024-03-23T01:02:15;9.30;;;4.90;;
84027;SDS011;74111;45.650;25.612;2024-03-23T01:04:44;10.00;;;5.20;;
84027;SDS011;74111;45.650;25.612;2024-03-23T01:07:13;8.90;;;4.90;;
84027;SDS011;74111;45.650;25.612;2024-03-23T01:09:43;7.30;;;4.60;;
84027;SDS011;74111;45.650;25.612;2024-03-23T01:14:41;7.50;;;4.20;;
84027;SDS011;74111;45.650;25.612;2024-03-23T01:17:10;6.90;;;4.30;;
84027;SDS011;74111;45.650;25.612;2024-03-23T01:19:42;8.50;;;5.20;;
84027;SDS011;74111;45.650;25.612;2024-03-23T01:22:12;6.50;;;4.20;;
84027;SDS011;74111;45.650;25.612;2024-03-23T01:24:40;5.40;;;3.60;;
84027;SDS011;74111;45.650;25.612;2024-03-23T01:27:09;6.30;;;3.60;;
84027;SDS011;74111;45.650;25.612;2024-03-23T01:29:40;5.80;;;3.70;;
84027;SDS011;74111;45.650;25.612;2024-03-23T01:32:08;4.90;;;3.30;;
84027;SDS011;74111;45.650;25.612;2024-03-23T01:34:38;6.90;;;4.00;;
84027;SDS011;74111;45.650;25.612;2024-03-23T01:37:09;6.70;;;4.70;;
84027;SDS011;74111;45.650;25.612;2024-03-23T01:39:37;5.60;;;3.80;;
84027;SDS011;74111;45.650;25.612;2024-03-23T01:42:07;6.60;;;4.50;;
84027;SDS011;74111;45.650;25.612;2024-03-23T01:44:36;7.10;;;4.00;;
84027;SDS011;74111;45.650;25.612;2024-03-23T01:47:06;8.30;;;4.30;;
84027;SDS011;74111;45.650;25.612;2024-03-23T01:49:35;7.50;;;4.10;;
84027;SDS011;74111;45.650;25.612;2024-03-23T01:52:04;10.20;;;6.40;;
84027;SDS011;74111;45.650;25.612;2024-03-23T01:54:32;9.90;;;5.20;;
84027;SDS011;74111;45.650;25.612;2024-03-23T01:57:02;13.20;;;6.80;;
84027;SDS011;74111;45.650;25.612;2024-03-23T01:59:33;12.20;;;7.80;;
84027;SDS011;74111;45.650;25.612;2024-03-23T02:02:03;12.70;;;7.10;;
84027;SDS011;74111;45.650;25.612;2024-03-23T02:04:34;11.90;;;6.90;;
84027;SDS011;74111;45.650;25.612;2024-03-23T02:09:34;9.80;;;5.90;;
84027;SDS011;74111;45.650;25.612;2024-03-23T02:12:03;15.20;;;6.60;;
84027;SDS011;74111;45.650;25.612;2024-03-23T02:14:33;13.00;;;6.50;;
84027;SDS011;74111;45.650;25.612;2024-03-23T02:17:03;10.30;;;6.00;;
84027;SDS011;74111;45.650;25.612;2024-03-23T02:19:33;12.00;;;6.00;;
84027;SDS011;74111;45.650;25.612;2024-03-23T02:22:03;12.40;;;6.30;;
84027;SDS011;74111;45.650;25.612;2024-03-23T02:24:32;10.90;;;6.40;;
84027;SDS011;74111;45.650;25.612;2024-03-23T02:27:05;9.60;;;5.60;;
84027;SDS011;74111;45.650;25.612;2024-03-23T02:29:35;11.00;;;7.10;;
84027;SDS011;74111;45.650;25.612;2024-03-23T02:32:04;11.00;;;6.20;;
84027;SDS011;74111;45.650;25.612;2024-03-23T02:34:34;9.90;;;6.70;;
84027;SDS011;74111;45.650;25.612;2024-03-23T02:37:09;8.50;;;5.00;;
84027;SDS011;74111;45.650;25.612;2024-03-23T02:39:39;9.50;;;5.80;;
84027;SDS011;74111;45.650;25.612;2024-03-23T02:42:09;11.30;;;6.50;;
84027;SDS011;74111;45.650;25.612;2024-03-23T02:44:37;12.00;;;7.00;;
84027;SDS011;74111;45.650;25.612;2024-03-23T02:47:06;13.60;;;8.10;;
84027;SDS011;74111;45.650;25.612;2024-03-23T02:49:34;10.80;;;7.70;;
84027;SDS011;74111;45.650;25.612;2024-03-23T02:52:03;10.80;;;7.20;;
84027;SDS011;74111;45.650;25.612;2024-03-23T02:54:32;12.60;;;7.20;;
84027;SDS011;74111;45.650;25.612;2024-03-23T02:57:03;14.30;;;7.90;;
84027;SDS011;74111;45.650;25.612;2024-03-23T02:59:31;14.00;;;7.70;;
84027;SDS011;74111;45.650;25.612;2024-03-23T03:02:02;13.90;;;7.90;;
84027;SDS011;74111;45.650;25.612;2024-03-23T03:04:33;11.80;;;6.70;;
84027;SDS011;74111;45.650;25.612;2024-03-23T03:07:02;10.90;;;6.80;;
84027;SDS011;74111;45.650;25.612;2024-03-23T03:09:33;15.50;;;7.60;;
84027;SDS011;74111;45.650;25.612;2024-03-23T03:12:03;16.20;;;8.30;;
84027;SDS011;74111;45.650;25.612;2024-03-23T03:14:33;16.80;;;10.00;;
84027;SDS011;74111;45.650;25.612;2024-03-23T03:17:04;21.40;;;10.50;;
84027;SDS011;74111;45.650;25.612;2024-03-23T03:19:33;19.00;;;10.90;;
84027;SDS011;74111;45.650;25.612;2024-03-23T03:22:02;17.50;;;8.90;;
84027;SDS011;74111;45.650;25.612;2024-03-23T03:24:32;15.40;;;9.40;;
84027;SDS011;74111;45.650;25.612;2024-03-23T03:27:01;13.90;;;9.70;;
84027;SDS011;74111;45.650;25.612;2024-03-23T03:29:31;13.00;;;8.50;;
84027;SDS011;74111;45.650;25.612;2024-03-23T03:32:04;14.20;;;8.30;;
84027;SDS011;74111;45.650;25.612;2024-03-23T03:34:34;20.10;;;8.50;;
84027;SDS011;74111;45.650;25.612;2024-03-23T03:37:06;16.40;;;9.40;;
84027;SDS011;74111;45.650;25.612;2024-03-23T03:39:35;16.60;;;8.10;;
84027;SDS011;74111;45.650;25.612;2024-03-23T03:42:04;9.90;;;6.70;;
84027;SDS011;74111;45.650;25.612;2024-03-23T03:44:37;14.10;;;7.90;;
84027;SDS011;74111;45.650;25.612;2024-03-23T03:47:06;12.90;;;7.30;;
84027;SDS011;74111;45.650;25.612;2024-03-23T03:52:04;13.00;;;6.00;;
84027;SDS011;74111;45.650;25.612;2024-03-23T03:54:32;12.40;;;6.60;;
84027;SDS011;74111;45.650;25.612;2024-03-23T03:57:01;9.40;;;6.00;;
84027;SDS011;74111;45.650;25.612;2024-03-23T04:01:59;10.80;;;5.60;;
84027;SDS011;74111;45.650;25.612;2024-03-23T04:07:01;8.20;;;5.20;;
84027;SDS011;74111;45.650;25.612;2024-03-23T04:09:30;9.50;;;5.70;;
84027;SDS011;74111;45.650;25.612;2024-03-23T04:14:29;12.40;;;5.40;;
84027;SDS011;74111;45.650;25.612;2024-03-23T04:16:58;9.70;;;5.60;;
84027;SDS011;74111;45.650;25.612;2024-03-23T04:19:29;11.60;;;6.10;;
84027;SDS011;74111;45.650;25.612;2024-03-23T04:21:59;11.50;;;6.70;;
84027;SDS011;74111;45.650;25.612;2024-03-23T04:24:29;13.50;;;8.80;;
84027;SDS011;74111;45.650;25.612;2024-03-23T04:26:57;15.80;;;9.70;;
84027;SDS011;74111;45.650;25.612;2024-03-23T04:31:56;16.40;;;9.80;;
84027;SDS011;74111;45.650;25.612;2024-03-23T04:34:26;17.60;;;9.10;;
84027;SDS011;74111;45.650;25.612;2024-03-23T04:36:55;16.00;;;9.70;;
84027;SDS011;74111;45.650;25.612;2024-03-23T04:39:24;15.80;;;8.30;;
84027;SDS011;74111;45.650;25.612;2024-03-23T04:41:52;17.30;;;8.60;;
84027;SDS011;74111;45.650;25.612;2024-03-23T04:44:21;15.20;;;8.60;;
84027;SDS011;74111;45.650;25.612;2024-03-23T04:46:50;9.80;;;6.60;;
84027;SDS011;74111;45.650;25.612;2024-03-23T04:51:47;13.60;;;7.40;;
84027;SDS011;74111;45.650;25.612;2024-03-23T04:54:19;15.90;;;9.20;;
84027;SDS011;74111;45.650;25.612;2024-03-23T04:56:50;13.40;;;8.00;;
84027;SDS011;74111;45.650;25.612;2024-03-23T04:59:19;15.70;;;8.50;;
84027;SDS011;74111;45.650;25.612;2024-03-23T05:01:49;16.00;;;9.60;;
84027;SDS011;74111;45.650;25.612;2024-03-23T05:04:19;14.00;;;8.70;;
84027;SDS011;74111;45.650;25.612;2024-03-23T05:06:48;19.40;;;9.70;;
84027;SDS011;74111;45.650;25.612;2024-03-23T05:09:19;18.90;;;9.00;;
84027;SDS011;74111;45.650;25.612;2024-03-23T05:11:48;16.70;;;10.10;;
84027;SDS011;74111;45.650;25.612;2024-03-23T05:14:18;16.00;;;9.00;;
84027;SDS011;74111;45.650;25.612;2024-03-23T05:16:47;15.90;;;8.80;;
84027;SDS011;74111;45.650;25.612;2024-03-23T05:21:45;14.30;;;7.70;;
84027;SDS011;74111;45.650;25.612;2024-03-23T05:24:14;15.10;;;8.70;;
84027;SDS011;74111;45.650;25.612;2024-03-23T05:26:43;13.10;;;8.30;;
84027;SDS011;74111;45.650;25.612;2024-03-23T05:29:12;13.50;;;8.30;;
84027;SDS011;74111;45.650;25.612;2024-03-23T05:34:10;12.80;;;7.10;;
84027;SDS011;74111;45.650;25.612;2024-03-23T05:36:40;15.60;;;9.20;;
84027;SDS011;74111;45.650;25.612;2024-03-23T05:39:09;13.40;;;8.60;;
84027;SDS011;74111;45.650;25.612;2024-03-23T05:41:37;14.10;;;8.70;;
84027;SDS011;74111;45.650;25.612;2024-03-23T05:44:07;14.60;;;8.70;;
84027;SDS011;74111;45.650;25.612;2024-03-23T05:46:38;15.90;;;8.70;;
84027;SDS011;74111;45.650;25.612;2024-03-23T05:49:08;16.90;;;9.80;;
84027;SDS011;74111;45.650;25.612;2024-03-23T05:51:36;15.90;;;9.70;;
84027;SDS011;74111;45.650;25.612;2024-03-23T05:54:05;18.40;;;10.00;;
84027;SDS011;74111;45.650;25.612;2024-03-23T05:56:34;19.10;;;10.00;;
84027;SDS011;74111;45.650;25.612;2024-03-23T05:59:03;21.00;;;12.30;;
84027;SDS011;74111;45.650;25.612;2024-03-23T06:01:32;23.60;;;11.40;;
84027;SDS011;74111;45.650;25.612;2024-03-23T06:04:03;20.20;;;9.40;;
84027;SDS011;74111;45.650;25.612;2024-03-23T06:06:32;15.70;;;9.40;;
84027;SDS011;74111;45.650;25.612;2024-03-23T06:09:02;19.60;;;11.60;;
84027;SDS011;74111;45.650;25.612;2024-03-23T06:11:30;17.50;;;9.80;;
84027;SDS011;74111;45.650;25.612;2024-03-23T06:13:59;20.80;;;11.20;;
84027;SDS011;74111;45.650;25.612;2024-03-23T06:16:30;22.90;;;11.30;;
84027;SDS011;74111;45.650;25.612;2024-03-23T06:18:59;17.30;;;9.50;;
84027;SDS011;74111;45.650;25.612;2024-03-23T06:21:28;14.70;;;9.30;;
84027;SDS011;74111;45.650;25.612;2024-03-23T06:26:26;18.50;;;10.70;;
84027;SDS011;74111;45.650;25.612;2024-03-23T06:28:55;15.40;;;9.90;;
84027;SDS011;74111;45.650;25.612;2024-03-23T06:31:24;18.00;;;10.80;;
84027;SDS011;74111;45.650;25.612;2024-03-23T06:33:53;17.60;;;10.80;;
84027;SDS011;74111;45.650;25.612;2024-03-23T06:36:23;16.00;;;10.40;;
84027;SDS011;74111;45.650;25.612;2024-03-23T06:41:22;15.40;;;9.50;;
84027;SDS011;74111;45.650;25.612;2024-03-23T06:43:55;18.90;;;9.90;;
84027;SDS011;74111;45.650;25.612;2024-03-23T06:46:24;16.30;;;8.70;;
84027;SDS011;74111;45.650;25.612;2024-03-23T06:48:53;16.10;;;9.50;;
84027;SDS011;74111;45.650;25.612;2024-03-23T06:51:21;19.30;;;11.00;;
84027;SDS011;74111;45.650;25.612;2024-03-23T06:53:50;17.10;;;10.00;;
84027;SDS011;74111;45.650;25.612;2024-03-23T06:56:19;13.60;;;7.80;;
84027;SDS011;74111;45.650;25.612;2024-03-23T06:58:48;14.10;;;9.50;;
84027;SDS011;74111;45.650;25.612;2024-03-23T07:01:17;16.20;;;10.30;;
84027;SDS011;74111;45.650;25.612;2024-03-23T07:03:50;20.60;;;9.50;;
84027;SDS011;74111;45.650;25.612;2024-03-23T07:06:19;16.40;;;11.00;;
84027;SDS011;74111;45.650;25.612;2024-03-23T07:08:52;17.70;;;9.50;;
84027;SDS011;74111;45.650;25.612;2024-03-23T07:11:22;13.40;;;9.50;;
84027;SDS011;74111;45.650;25.612;2024-03-23T07:13:52;16.90;;;9.80;;
84027;SDS011;74111;45.650;25.612;2024-03-23T07:16:26;16.00;;;11.00;;
84027;SDS011;74111;45.650;25.612;2024-03-23T07:18:56;16.70;;;10.40;;
84027;SDS011;74111;45.650;25.612;2024-03-23T07:21:24;18.00;;;9.90;;
84027;SDS011;74111;45.650;25.612;2024-03-23T07:23:53;19.20;;;11.90;;
84027;SDS011;74111;45.650;25.612;2024-03-23T07:26:22;17.40;;;11.80;;
84027;SDS011;74111;45.650;25.612;2024-03-23T07:28:50;17.70;;;11.60;;
84027;SDS011;74111;45.650;25.612;2024-03-23T07:31:22;16.60;;;11.00;;
84027;SDS011;74111;45.650;25.612;2024-03-23T07:33:50;21.40;;;13.10;;
84027;SDS011;74111;45.650;25.612;2024-03-23T07:36:20;19.50;;;11.20;;
84027;SDS011;74111;45.650;25.612;2024-03-23T07:38:50;18.60;;;11.00;;
84027;SDS011;74111;45.650;25.612;2024-03-23T07:41:27;16.30;;;10.40;;
84027;SDS011;74111;45.650;25.612;2024-03-23T07:43:56;17.80;;;11.80;;
84027;SDS011;74111;45.650;25.612;2024-03-23T07:46:25;18.00;;;11.30;;
84027;SDS011;74111;45.650;25.612;2024-03-23T07:48:55;22.20;;;11.80;;
84027;SDS011;74111;45.650;25.612;2024-03-23T07:51:25;20.80;;;12.00;;
84027;SDS011;74111;45.650;25.612;2024-03-23T07:53:54;15.80;;;10.20;;
84027;SDS011;74111;45.650;25.612;2024-03-23T07:56:23;20.40;;;12.20;;
84027;SDS011;74111;45.650;25.612;2024-03-23T07:58:52;18.10;;;12.30;;
84027;SDS011;74111;45.650;25.612;2024-03-23T08:01:21;20.50;;;12.40;;
84027;SDS011;74111;45.650;25.612;2024-03-23T08:03:49;19.90;;;11.70;;
84027;SDS011;74111;45.650;25.612;2024-03-23T08:06:19;17.70;;;12.40;;
84027;SDS011;74111;45.650;25.612;2024-03-23T08:08:54;18.80;;;11.20;;
84027;SDS011;74111;45.650;25.612;2024-03-23T08:11:31;17.40;;;11.20;;
84027;SDS011;74111;45.650;25.612;2024-03-23T08:14:02;16.80;;;11.20;;
84027;SDS011;74111;45.650;25.612;2024-03-23T08:16:32;20.10;;;11.50;;
84027;SDS011;74111;45.650;25.612;2024-03-23T08:19:02;19.20;;;12.00;;
84027;SDS011;74111;45.650;25.612;2024-03-23T08:21:32;17.90;;;10.70;;
84027;SDS011;74111;45.650;25.612;2024-03-23T08:24:01;16.20;;;10.20;;
84027;SDS011;74111;45.650;25.612;2024-03-23T08:26:29;17.50;;;10.20;;
84027;SDS011;74111;45.650;25.612;2024-03-23T08:29:00;15.80;;;9.90;;
84027;SDS011;74111;45.650;25.612;2024-03-23T08:31:29;18.40;;;11.60;;
84027;SDS011;74111;45.650;25.612;2024-03-23T08:36:26;11.80;;;8.50;;
84027;SDS011;74111;45.650;25.612;2024-03-23T08:38:55;16.00;;;9.70;;
84027;SDS011;74111;45.650;25.612;2024-03-23T08:41:25;16.40;;;9.40;;
84027;SDS011;74111;45.650;25.612;2024-03-23T08:43:55;15.50;;;9.10;;
84027;SDS011;74111;45.650;25.612;2024-03-23T08:46:25;15.80;;;10.20;;
84027;SDS011;74111;45.650;25.612;2024-03-23T08:48:54;17.50;;;10.30;;
84027;SDS011;74111;45.650;25.612;2024-03-23T08:51:23;14.60;;;10.20;;
84027;SDS011;74111;45.650;25.612;2024-03-23T08:53:52;16.30;;;10.40;;
84027;SDS011;74111;45.650;25.612;2024-03-23T08:56:22;13.10;;;8.60;;
84027;SDS011;74111;45.650;25.612;2024-03-23T08:58:52;16.00;;;9.60;;
84027;SDS011;74111;45.650;25.612;2024-03-23T09:01:21;16.20;;;8.80;;
84027;SDS011;74111;45.650;25.612;2024-03-23T09:03:51;13.20;;;8.20;;
84027;SDS011;74111;45.650;25.612;2024-03-23T09:06:21;15.20;;;9.50;;
84027;SDS011;74111;45.650;25.612;2024-03-23T09:08:50;13.50;;;9.20;;
84027;SDS011;74111;45.650;25.612;2024-03-23T09:11:18;10.50;;;6.90;;
84027;SDS011;74111;45.650;25.612;2024-03-23T09:13:48;14.00;;;8.60;;
84027;SDS011;74111;45.650;25.612;2024-03-23T09:16:18;12.30;;;8.80;;
84027;SDS011;74111;45.650;25.612;2024-03-23T09:18:48;14.00;;;7.80;;
84027;SDS011;74111;45.650;25.612;2024-03-23T09:21:17;12.10;;;7.50;;
84027;SDS011;74111;45.650;25.612;2024-03-23T09:23:47;13.00;;;7.60;;
84027;SDS011;74111;45.650;25.612;2024-03-23T09:26:17;12.20;;;7.90;;
84027;SDS011;74111;45.650;25.612;2024-03-23T09:28:48;13.80;;;8.50;;
84027;SDS011;74111;45.650;25.612;2024-03-23T09:31:17;10.30;;;7.60;;
84027;SDS011;74111;45.650;25.612;2024-03-23T09:33:46;10.80;;;6.90;;
84027;SDS011;74111;45.650;25.612;2024-03-23T09:36:15;11.90;;;7.60;;
84027;SDS011;74111;45.650;25.612;2024-03-23T09:38:44;13.50;;;7.80;;
84027;SDS011;74111;45.650;25.612;2024-03-23T09:41:13;10.20;;;6.80;;
84027;SDS011;74111;45.650;25.612;2024-03-23T09:43:44;13.40;;;7.90;;
84027;SDS011;74111;45.650;25.612;2024-03-23T09:46:16;11.90;;;8.10;;
84027;SDS011;74111;45.650;25.612;2024-03-23T09:48:45;11.40;;;8.10;;
84027;SDS011;74111;45.650;25.612;2024-03-23T09:51:15;10.20;;;6.90;;
84027;SDS011;74111;45.650;25.612;2024-03-23T09:53:45;14.80;;;8.60;;
84027;SDS011;74111;45.650;25.612;2024-03-23T09:56:15;11.00;;;8.10;;
84027;SDS011;74111;45.650;25.612;2024-03-23T09:58:45;14.40;;;7.90;;
84027;SDS011;74111;45.650;25.612;2024-03-23T10:01:14;10.20;;;7.10;;
84027;SDS011;74111;45.650;25.612;2024-03-23T10:03:46;10.20;;;6.90;;
84027;SDS011;74111;45.650;25.612;2024-03-23T10:06:16;10.50;;;6.80;;
84027;SDS011;74111;45.650;25.612;2024-03-23T10:08:50;21.40;;;7.70;;
84027;SDS011;74111;45.650;25.612;2024-03-23T10:11:20;9.50;;;6.80;;
84027;SDS011;74111;45.650;25.612;2024-03-23T10:13:49;10.30;;;6.40;;
84027;SDS011;74111;45.650;25.612;2024-03-23T10:16:22;12.40;;;7.30;;
84027;SDS011;74111;45.650;25.612;2024-03-23T10:18:52;9.70;;;7.10;;
84027;SDS011;74111;45.650;25.612;2024-03-23T10:21:21;10.60;;;7.50;;
84027;SDS011;74111;45.650;25.612;2024-03-23T10:23:49;12.40;;;8.00;;
84027;SDS011;74111;45.650;25.612;2024-03-23T10:26:24;12.60;;;7.00;;
84027;SDS011;74111;45.650;25.612;2024-03-23T10:28:58;10.80;;;6.50;;
84027;SDS011;74111;45.650;25.612;2024-03-23T10:31:33;9.20;;;6.30;;
84027;SDS011;74111;45.650;25.612;2024-03-23T10:34:04;13.10;;;7.00;;
84027;SDS011;74111;45.650;25.612;2024-03-23T10:36:33;9.00;;;6.10;;
84027;SDS011;74111;45.650;25.612;2024-03-23T10:39:04;10.00;;;5.90;;
84027;SDS011;74111;45.650;25.612;2024-03-23T10:41:36;9.00;;;5.80;;
84027;SDS011;74111;45.650;25.612;2024-03-23T10:44:08;9.90;;;6.40;;
84027;SDS011;74111;45.650;25.612;2024-03-23T10:46:37;8.20;;;5.80;;
84027;SDS011;74111;45.650;25.612;2024-03-23T10:49:06;8.60;;;6.50;;
84027;SDS011;74111;45.650;25.612;2024-03-23T10:51:35;8.90;;;6.60;;
84027;SDS011;74111;45.650;25.612;2024-03-23T10:54:04;8.60;;;6.10;;
84027;SDS011;74111;45.650;25.612;2024-03-23T10:56:35;7.60;;;5.40;;
84027;SDS011;74111;45.650;25.612;2024-03-23T10:59:05;14.10;;;6.70;;
84027;SDS011;74111;45.650;25.612;2024-03-23T11:01:47;8.40;;;6.60;;
84027;SDS011;74111;45.650;25.612;2024-03-23T11:09:59;10.20;;;6.10;;
84027;SDS011;74111;45.650;25.612;2024-03-23T11:12:31;8.30;;;5.70;;
84027;SDS011;74111;45.650;25.612;2024-03-23T11:15:03;7.10;;;5.20;;
84027;SDS011;74111;45.650;25.612;2024-03-23T11:17:40;6.10;;;4.40;;
84027;SDS011;74111;45.650;25.612;2024-03-23T11:20:09;8.70;;;5.00;;
84027;SDS011;74111;45.650;25.612;2024-03-23T11:22:40;6.90;;;4.50;;
84027;SDS011;74111;45.650;25.612;2024-03-23T11:27:51;5.40;;;4.50;;
84027;SDS011;74111;45.650;25.612;2024-03-23T11:30:21;4.30;;;3.80;;
84027;SDS011;74111;45.650;25.612;2024-03-23T11:32:54;7.80;;;5.40;;
84027;SDS011;74111;45.650;25.612;2024-03-23T11:35:25;5.20;;;4.10;;
84027;SDS011;74111;45.650;25.612;2024-03-23T11:38:10;8.00;;;5.90;;
84027;SDS011;74111;45.650;25.612;2024-03-23T11:40:45;8.40;;;5.20;;
84027;SDS011;74111;45.650;25.612;2024-03-23T11:43:16;9.60;;;5.40;;
84027;SDS011;74111;45.650;25.612;2024-03-23T11:45:50;7.40;;;5.10;;
84027;SDS011;74111;45.650;25.612;2024-03-23T11:48:22;7.70;;;5.50;;
84027;SDS011;74111;45.650;25.612;2024-03-23T11:50:53;6.00;;;4.80;;
84027;SDS011;74111;45.650;25.612;2024-03-23T11:53:26;6.90;;;5.40;;
84027;SDS011;74111;45.650;25.612;2024-03-23T11:55:56;6.10;;;5.10;;
84027;SDS011;74111;45.650;25.612;2024-03-23T11:58:26;7.00;;;5.30;;
84027;SDS011;74111;45.650;25.612;2024-03-23T12:00:57;8.70;;;5.90;;
84027;SDS011;74111;45.650;25.612;2024-03-23T12:03:27;6.80;;;5.50;;
84027;SDS011;74111;45.650;25.612;2024-03-23T12:05:59;6.50;;;5.70;;
84027;SDS011;74111;45.650;25.612;2024-03-23T12:08:34;7.70;;;5.30;;
84027;SDS011;74111;45.650;25.612;2024-03-23T12:11:09;6.60;;;5.30;;
84027;SDS011;74111;45.650;25.612;2024-03-23T12:13:43;6.70;;;5.30;;
84027;SDS011;74111;45.650;25.612;2024-03-23T12:16:17;9.60;;;5.80;;
84027;SDS011;74111;45.650;25.612;2024-03-23T12:18:50;7.40;;;5.70;;
84027;SDS011;74111;45.650;25.612;2024-03-23T12:21:22;6.50;;;5.00;;
84027;SDS011;74111;45.650;25.612;2024-03-23T12:23:51;5.60;;;4.90;;
84027;SDS011;74111;45.650;25.612;2024-03-23T12:26:21;6.70;;;4.70;;
84027;SDS011;74111;45.650;25.612;2024-03-23T12:28:51;6.10;;;4.80;;
84027;SDS011;74111;45.650;25.612;2024-03-23T12:31:20;6.10;;;4.80;;
84027;SDS011;74111;45.650;25.612;2024-03-23T12:33:49;6.60;;;5.40;;
84027;SDS011;74111;45.650;25.612;2024-03-23T12:36:18;6.90;;;4.90;;
84027;SDS011;74111;45.650;25.612;2024-03-23T12:38:46;6.50;;;4.80;;
84027;SDS011;74111;45.650;25.612;2024-03-23T12:41:15;6.20;;;5.30;;
84027;SDS011;74111;45.650;25.612;2024-03-23T12:43:43;6.50;;;5.80;;
84027;SDS011;74111;45.650;25.612;2024-03-23T12:46:12;7.30;;;4.80;;
84027;SDS011;74111;45.650;25.612;2024-03-23T12:48:40;7.10;;;5.80;;
84027;SDS011;74111;45.650;25.612;2024-03-23T12:51:11;5.60;;;5.00;;
84027;SDS011;74111;45.650;25.612;2024-03-23T12:53:40;7.10;;;4.70;;
84027;SDS011;74111;45.650;25.612;2024-03-23T12:56:12;5.60;;;4.90;;
84027;SDS011;74111;45.650;25.612;2024-03-23T12:58:45;5.80;;;5.10;;
84027;SDS011;74111;45.650;25.612;2024-03-23T13:01:19;5.20;;;4.30;;
84027;SDS011;74111;45.650;25.612;2024-03-23T13:03:48;5.00;;;4.40;;
84027;SDS011;74111;45.650;25.612;2024-03-23T13:06:17;5.40;;;4.60;;
84027;SDS011;74111;45.650;25.612;2024-03-23T13:08:46;5.50;;;4.00;;
84027;SDS011;74111;45.650;25.612;2024-03-23T13:11:14;5.60;;;4.70;;
84027;SDS011;74111;45.650;25.612;2024-03-23T13:13:43;5.20;;;4.20;;
84027;SDS011;74111;45.650;25.612;2024-03-23T13:16:12;7.20;;;4.10;;
84027;SDS011;74111;45.650;25.612;2024-03-23T13:18:41;5.70;;;4.20;;
84027;SDS011;74111;45.650;25.612;2024-03-23T13:21:10;5.20;;;4.50;;
84027;SDS011;74111;45.650;25.612;2024-03-23T13:23:38;5.80;;;4.50;;
84027;SDS011;74111;45.650;25.612;2024-03-23T13:26:10;5.50;;;4.60;;
84027;SDS011;74111;45.650;25.612;2024-03-23T13:28:43;5.30;;;4.80;;
84027;SDS011;74111;45.650;25.612;2024-03-23T13:31:12;8.40;;;4.60;;
84027;SDS011;74111;45.650;25.612;2024-03-23T13:33:40;5.80;;;4.40;;
84027;SDS011;74111;45.650;25.612;2024-03-23T13:36:12;4.70;;;4.20;;
84027;SDS011;74111;45.650;25.612;2024-03-23T13:38:41;6.10;;;5.40;;
84027;SDS011;74111;45.650;25.612;2024-03-23T13:41:10;6.80;;;4.90;;
84027;SDS011;74111;45.650;25.612;2024-03-23T13:43:40;5.50;;;4.50;;
84027;SDS011;74111;45.650;25.612;2024-03-23T13:46:09;6.20;;;4.30;;
84027;SDS011;74111;45.650;25.612;2024-03-23T13:48:37;7.00;;;5.60;;
84027;SDS011;74111;45.650;25.612;2024-03-23T13:51:05;7.10;;;5.30;;
84027;SDS011;74111;45.650;25.612;2024-03-23T13:53:37;5.00;;;4.30;;
84027;SDS011;74111;45.650;25.612;2024-03-23T13:56:06;5.70;;;4.70;;
84027;SDS011;74111;45.650;25.612;2024-03-23T13:58:34;5.40;;;4.50;;
84027;SDS011;74111;45.650;25.612;2024-03-23T14:01:02;6.20;;;5.60;;
84027;SDS011;74111;45.650;25.612;2024-03-23T14:03:33;4.50;;;3.90;;
84027;SDS011;74111;45.650;25.612;2024-03-23T14:06:01;5.40;;;4.70;;
84027;SDS011;74111;45.650;25.612;2024-03-23T14:08:32;6.60;;;4.60;;
84027;SDS011;74111;45.650;25.612;2024-03-23T14:11:02;6.80;;;5.30;;
84027;SDS011;74111;45.650;25.612;2024-03-23T14:13:32;6.20;;;4.70;;
84027;SDS011;74111;45.650;25.612;2024-03-23T14:16:01;6.00;;;4.60;;
84027;SDS011;74111;45.650;25.612;2024-03-23T14:18:30;5.40;;;4.70;;
84027;SDS011;74111;45.650;25.612;2024-03-23T14:20:59;5.90;;;4.80;;
84027;SDS011;74111;45.650;25.612;2024-03-23T14:23:30;6.30;;;4.80;;
84027;SDS011;74111;45.650;25.612;2024-03-23T14:26:02;5.30;;;4.80;;
84027;SDS011;74111;45.650;25.612;2024-03-23T14:28:31;5.50;;;4.50;;
84027;SDS011;74111;45.650;25.612;2024-03-23T14:31:00;6.40;;;4.90;;
84027;SDS011;74111;45.650;25.612;2024-03-23T14:33:30;6.40;;;4.50;;
84027;SDS011;74111;45.650;25.612;2024-03-23T14:36:01;7.20;;;4.90;;
84027;SDS011;74111;45.650;25.612;2024-03-23T14:38:34;6.60;;;4.90;;
84027;SDS011;74111;45.650;25.612;2024-03-23T14:41:03;6.70;;;5.80;;
84027;SDS011;74111;45.650;25.612;2024-03-23T14:43:32;8.30;;;5.80;;
84027;SDS011;74111;45.650;25.612;2024-03-23T14:46:06;5.30;;;4.30;;
84027;SDS011;74111;45.650;25.612;2024-03-23T14:48:36;6.00;;;4.80;;
84027;SDS011;74111;45.650;25.612;2024-03-23T14:51:05;10.70;;;4.90;;
84027;SDS011;74111;45.650;25.612;2024-03-23T14:53:41;7.40;;;5.80;;
84027;SDS011;74111;45.650;25.612;2024-03-23T14:56:13;7.10;;;5.00;;
84027;SDS011;74111;45.650;25.612;2024-03-23T14:58:44;7.40;;;4.30;;
84027;SDS011;74111;45.650;25.612;2024-03-23T15:01:14;6.90;;;4.70;;
84027;SDS011;74111;45.650;25.612;2024-03-23T15:03:43;7.10;;;5.30;;
84027;SDS011;74111;45.650;25.612;2024-03-23T15:06:12;6.30;;;4.40;;
84027;SDS011;74111;45.650;25.612;2024-03-23T15:08:41;5.70;;;4.70;;
84027;SDS011;74111;45.650;25.612;2024-03-23T15:11:09;7.20;;;4.50;;
84027;SDS011;74111;45.650;25.612;2024-03-23T15:13:40;7.20;;;5.10;;
84027;SDS011;74111;45.650;25.612;2024-03-23T15:16:09;6.20;;;5.00;;
84027;SDS011;74111;45.650;25.612;2024-03-23T15:18:38;9.10;;;7.20;;
84027;SDS011;74111;45.650;25.612;2024-03-23T15:21:07;11.20;;;9.20;;
84027;SDS011;74111;45.650;25.612;2024-03-23T15:23:39;7.70;;;6.30;;
84027;SDS011;74111;45.650;25.612;2024-03-23T15:26:09;7.90;;;6.00;;
84027;SDS011;74111;45.650;25.612;2024-03-23T15:28:38;7.40;;;5.20;;
84027;SDS011;74111;45.650;25.612;2024-03-23T15:31:10;6.00;;;4.50;;
84027;SDS011;74111;45.650;25.612;2024-03-23T15:33:39;6.50;;;4.80;;
84027;SDS011;74111;45.650;25.612;2024-03-23T15:36:09;6.30;;;5.50;;
84027;SDS011;74111;45.650;25.612;2024-03-23T15:38:37;6.10;;;4.70;;
84027;SDS011;74111;45.650;25.612;2024-03-23T15:41:09;6.70;;;4.70;;
84027;SDS011;74111;45.650;25.612;2024-03-23T15:43:38;8.20;;;4.80;;
84027;SDS011;74111;45.650;25.612;2024-03-23T15:46:07;6.90;;;4.80;;
84027;SDS011;74111;45.650;25.612;2024-03-23T15:48:38;7.00;;;5.10;;
84027;SDS011;74111;45.650;25.612;2024-03-23T15:51:08;8.80;;;5.40;;
84027;SDS011;74111;45.650;25.612;2024-03-23T15:53:37;9.70;;;6.50;;
84027;SDS011;74111;45.650;25.612;2024-03-23T15:56:08;14.50;;;5.80;;
84027;SDS011;74111;45.650;25.612;2024-03-23T15:58:37;10.50;;;5.60;;
84027;SDS011;74111;45.650;25.612;2024-03-23T16:01:10;6.70;;;4.80;;
84027;SDS011;74111;45.650;25.612;2024-03-23T16:03:39;7.80;;;5.80;;
84027;SDS011;74111;45.650;25.612;2024-03-23T16:06:08;5.60;;;4.50;;
84027;SDS011;74111;45.650;25.612;2024-03-23T16:08:38;9.70;;;5.40;;
84027;SDS011;74111;45.650;25.612;2024-03-23T16:11:09;8.10;;;4.90;;
84027;SDS011;74111;45.650;25.612;2024-03-23T16:13:38;6.00;;;4.50;;
84027;SDS011;74111;45.650;25.612;2024-03-23T16:16:10;5.70;;;4.60;;